sensor_id;sensor_type;location;lat;lon;timestamp;pressure;altitude;pressure_sealevel;temperature;humidity
35045;BME280;21231;48.394;34.964;2022-08-25T00:01:35;100211.81;;;23.40;47.09
35045;BME280;21231;48.394;34.964;2022-08-25T00:04:27;100216.22;;;23.44;47.04
35045;BME280;21231;48.394;34.964;2022-08-25T00:07:21;100205.72;;;23.43;46.98
35045;BME280;21231;48.394;34.964;2022-08-25T00:10:28;100219.72;;;23.35;47.18
35045;BME280;21231;48.394;34.964;2022-08-25T00:13:51;100210.00;;;23.26;47.61
35045;BME280;21231;48.394;34.964;2022-08-25T00:23:47;100202.09;;;23.16;48.16
35045;BME280;21231;48.394;34.964;2022-08-25T00:27:05;100205.56;;;23.11;48.46
35045;BME280;21231;48.394;34.964;2022-08-25T00:30:06;100209.94;;;23.09;48.66
35045;BME280;21231;48.394;34.964;2022-08-25T00:33:09;100209.03;;;23.01;48.51
35045;BME280;21231;48.394;34.964;2022-08-25T00:36:10;100215.19;;;23.08;48.21
35045;BME280;21231;48.394;34.964;2022-08-25T00:39:17;100212.59;;;23.12;48.14
35045;BME280;21231;48.394;34.964;2022-08-25T00:42:29;100223.97;;;23.11;48.40
35045;BME280;21231;48.394;34.964;2022-08-25T00:45:40;100220.47;;;23.14;48.04
35045;BME280;21231;48.394;34.964;2022-08-25T00:48:55;100216.97;;;23.12;48.23
35045;BME280;21231;48.394;34.964;2022-08-25T00:52:21;100222.25;;;23.18;48.19
35045;BME280;21231;48.394;34.964;2022-08-25T00:55:44;100226.66;;;23.24;48.00
35045;BME280;21231;48.394;34.964;2022-08-25T00:58:56;100228.41;;;23.25;47.82
35045;BME280;21231;48.394;34.964;2022-08-25T01:09:51;100226.59;;;23.11;48.30
35045;BME280;21231;48.394;34.964;2022-08-25T01:13:31;100228.44;;;23.28;47.74
35045;BME280;21231;48.394;34.964;2022-08-25T01:16:42;100224.06;;;23.35;47.76
35045;BME280;21231;48.394;34.964;2022-08-25T01:26:42;100223.16;;;23.28;47.85
35045;BME280;21231;48.394;34.964;2022-08-25T01:29:49;100227.56;;;23.31;47.94
35045;BME280;21231;48.394;34.964;2022-08-25T01:33:08;100227.59;;;23.40;47.59
35045;BME280;21231;48.394;34.964;2022-08-25T01:36:56;100225.84;;;23.33;47.89
35045;BME280;21231;48.394;34.964;2022-08-25T01:40:19;100218.75;;;23.19;48.24
35045;BME280;21231;48.394;34.964;2022-08-25T01:47:18;100232.63;;;22.90;49.57
35045;BME280;21231;48.394;34.964;2022-08-25T01:54:20;100227.22;;;22.68;50.21
35045;BME280;21231;48.394;34.964;2022-08-25T01:57:34;100221.88;;;22.57;50.77
35045;BME280;21231;48.394;34.964;2022-08-25T02:00:32;100232.31;;;22.53;51.14
35045;BME280;21231;48.394;34.964;2022-08-25T02:11:10;100222.66;;;22.48;51.80
35045;BME280;21231;48.394;34.964;2022-08-25T02:14:41;100226.13;;;22.41;52.34
35045;BME280;21231;48.394;34.964;2022-08-25T02:17:36;100227.78;;;22.31;53.00
35045;BME280;21231;48.394;34.964;2022-08-25T02:20:37;100232.06;;;22.21;53.44
35045;BME280;21231;48.394;34.964;2022-08-25T02:23:47;100235.47;;;22.11;53.78
35045;BME280;21231;48.394;34.964;2022-08-25T02:27:09;100235.50;;;22.16;54.61
35045;BME280;21231;48.394;34.964;2022-08-25T02:30:32;100235.44;;;22.08;55.11
35045;BME280;21231;48.394;34.964;2022-08-25T02:36:40;100237.91;;;21.92;56.31
35045;BME280;21231;48.394;34.964;2022-08-25T02:39:35;100241.31;;;21.82;56.33
35045;BME280;21231;48.394;34.964;2022-08-25T02:42:39;100242.94;;;21.75;57.34
35045;BME280;21231;48.394;34.964;2022-08-25T02:46:04;100245.59;;;21.77;57.67
35045;BME280;21231;48.394;34.964;2022-08-25T02:49:05;100248.13;;;21.70;57.73
35045;BME280;21231;48.394;34.964;2022-08-25T02:52:00;100252.47;;;21.67;58.77
35045;BME280;21231;48.394;34.964;2022-08-25T02:55:18;100248.94;;;21.65;59.55
35045;BME280;21231;48.394;34.964;2022-08-25T02:58:25;100249.88;;;21.68;59.24
35045;BME280;21231;48.394;34.964;2022-08-25T03:01:44;100255.97;;;21.69;60.22
35045;BME280;21231;48.394;34.964;2022-08-25T03:04:32;100253.38;;;21.67;60.75
35045;BME280;21231;48.394;34.964;2022-08-25T03:07:30;100251.50;;;21.58;62.09
35045;BME280;21231;48.394;34.964;2022-08-25T03:10:40;100247.88;;;21.46;62.78
35045;BME280;21231;48.394;34.964;2022-08-25T03:13:35;100251.31;;;21.44;64.43
35045;BME280;21231;48.394;34.964;2022-08-25T03:16:49;100254.78;;;21.42;65.12
35045;BME280;21231;48.394;34.964;2022-08-25T03:20:24;100250.28;;;21.31;67.16
35045;BME280;21231;48.394;34.964;2022-08-25T03:23:12;100260.72;;;21.27;68.16
35045;BME280;21231;48.394;34.964;2022-08-25T03:26:23;100260.72;;;21.27;68.09
35045;BME280;21231;48.394;34.964;2022-08-25T03:29:59;100259.88;;;21.29;69.65
35045;BME280;21231;48.394;34.964;2022-08-25T03:33:03;100259.16;;;21.40;69.37
35045;BME280;21231;48.394;34.964;2022-08-25T03:36:17;100264.53;;;21.51;68.64
35045;BME280;21231;48.394;34.964;2022-08-25T03:39:37;100268.16;;;21.61;67.73
35045;BME280;21231;48.394;34.964;2022-08-25T03:43:01;100272.00;;;21.92;66.70
35045;BME280;21231;48.394;34.964;2022-08-25T03:46:05;100267.53;;;22.75;62.48
35045;BME280;21231;48.394;34.964;2022-08-25T03:49:25;100260.91;;;23.44;59.89
35045;BME280;21231;48.394;34.964;2022-08-25T03:52:49;100261.91;;;23.60;58.52
35045;BME280;21231;48.394;34.964;2022-08-25T03:55:55;100264.66;;;24.02;57.33
35045;BME280;21231;48.394;34.964;2022-08-25T03:58:56;100264.75;;;24.49;55.88
35045;BME280;21231;48.394;34.964;2022-08-25T04:02:32;100265.56;;;24.82;54.15
35045;BME280;21231;48.394;34.964;2022-08-25T04:10:00;100259.41;;;25.05;53.22
35045;BME280;21231;48.394;34.964;2022-08-25T04:13:15;100253.16;;;25.36;52.18
35045;BME280;21231;48.394;34.964;2022-08-25T04:16:41;100252.28;;;25.42;51.72
35045;BME280;21231;48.394;34.964;2022-08-25T04:19:52;100256.50;;;25.77;51.50
35045;BME280;21231;48.394;34.964;2022-08-25T04:23:03;100257.41;;;25.78;51.14
35045;BME280;21231;48.394;34.964;2022-08-25T04:29:24;100252.81;;;26.11;50.80
35045;BME280;21231;48.394;34.964;2022-08-25T04:32:23;100260.69;;;26.19;50.17
35045;BME280;21231;48.394;34.964;2022-08-25T04:35:25;100269.28;;;26.46;49.66
35045;BME280;21231;48.394;34.964;2022-08-25T04:38:32;100261.31;;;26.50;49.49
35045;BME280;21231;48.394;34.964;2022-08-25T04:44:55;100264.69;;;26.71;49.30
35045;BME280;21231;48.394;34.964;2022-08-25T04:47:53;100257.69;;;26.67;48.77
35045;BME280;21231;48.394;34.964;2022-08-25T04:50:54;100272.38;;;26.95;48.54
35045;BME280;21231;48.394;34.964;2022-08-25T05:08:29;100248.63;;;27.69;48.13
35045;BME280;21231;48.394;34.964;2022-08-25T05:11:44;100235.63;;;28.14;47.93
35045;BME280;21231;48.394;34.964;2022-08-25T05:14:54;100242.44;;;28.31;47.00
35045;BME280;21231;48.394;34.964;2022-08-25T05:18:04;100244.03;;;28.40;46.53
35045;BME280;21231;48.394;34.964;2022-08-25T05:24:49;100245.81;;;28.93;46.52
35045;BME280;21231;48.394;34.964;2022-08-25T05:27:43;100239.81;;;28.83;46.41
35045;BME280;21231;48.394;34.964;2022-08-25T05:30:47;100229.94;;;28.91;46.63
35045;BME280;21231;48.394;34.964;2022-08-25T05:33:52;100237.97;;;29.32;46.08
35045;BME280;21231;48.394;34.964;2022-08-25T05:37:09;100230.22;;;29.21;46.19
35045;BME280;21231;48.394;34.964;2022-08-25T05:40:17;100243.16;;;29.37;45.99
35045;BME280;21231;48.394;34.964;2022-08-25T05:43:18;100234.44;;;29.73;46.38
35045;BME280;21231;48.394;34.964;2022-08-25T05:46:19;100232.53;;;29.80;45.29
35045;BME280;21231;48.394;34.964;2022-08-25T05:49:21;100235.06;;;30.24;45.43
35045;BME280;21231;48.394;34.964;2022-08-25T05:52:08;100228.59;;;30.69;44.33
35045;BME280;21231;48.394;34.964;2022-08-25T05:55:10;100233.09;;;31.00;44.09
35045;BME280;21231;48.394;34.964;2022-08-25T05:58:19;100227.09;;;30.94;44.18
35045;BME280;21231;48.394;34.964;2022-08-25T06:01:36;100229.41;;;31.38;43.27
35045;BME280;21231;48.394;34.964;2022-08-25T06:05:21;100230.41;;;31.34;43.11
35045;BME280;21231;48.394;34.964;2022-08-25T06:08:15;100224.03;;;30.76;42.69
35045;BME280;21231;48.394;34.964;2022-08-25T06:11:09;100231.63;;;30.90;42.86
35045;BME280;21231;48.394;34.964;2022-08-25T06:14:04;100219.75;;;31.02;43.12
35045;BME280;21231;48.394;34.964;2022-08-25T06:16:56;100221.84;;;31.22;42.56
35045;BME280;21231;48.394;34.964;2022-08-25T06:19:55;100234.88;;;31.33;42.44
35045;BME280;21231;48.394;34.964;2022-08-25T06:22:47;100226.91;;;31.62;42.36
35045;BME280;21231;48.394;34.964;2022-08-25T06:26:01;100230.16;;;31.43;41.13
35045;BME280;21231;48.394;34.964;2022-08-25T06:29:07;100233.41;;;30.89;42.26
35045;BME280;21231;48.394;34.964;2022-08-25T06:32:14;100229.44;;;31.04;42.42
35045;BME280;21231;48.394;34.964;2022-08-25T06:35:19;100230.38;;;31.03;42.33
35045;BME280;21231;48.394;34.964;2022-08-25T06:38:27;100220.44;;;31.71;41.76
35045;BME280;21231;48.394;34.964;2022-08-25T06:41:17;100219.88;;;31.88;41.46
35045;BME280;21231;48.394;34.964;2022-08-25T06:44:27;100221.75;;;31.86;41.29
35045;BME280;21231;48.394;34.964;2022-08-25T06:47:28;100225.06;;;31.94;41.15
35045;BME280;21231;48.394;34.964;2022-08-25T06:50:45;100214.16;;;32.02;40.91
35045;BME280;21231;48.394;34.964;2022-08-25T06:53:48;100216.47;;;31.84;41.46
35045;BME280;21231;48.394;34.964;2022-08-25T06:57:07;100214.97;;;32.04;40.95
35045;BME280;21231;48.394;34.964;2022-08-25T07:00:11;100213.38;;;32.52;40.91
35045;BME280;21231;48.394;34.964;2022-08-25T07:03:30;100201.34;;;32.66;39.87
35045;BME280;21231;48.394;34.964;2022-08-25T07:06:24;100201.31;;;33.17;40.16
35045;BME280;21231;48.394;34.964;2022-08-25T07:09:24;100200.22;;;32.97;38.29
35045;BME280;21231;48.394;34.964;2022-08-25T07:12:27;100199.75;;;32.60;38.58
35045;BME280;21231;48.394;34.964;2022-08-25T07:15:30;100192.31;;;33.19;38.54
35045;BME280;21231;48.394;34.964;2022-08-25T07:21:58;100189.56;;;32.46;37.85
35045;BME280;21231;48.394;34.964;2022-08-25T07:24:56;100192.66;;;32.33;37.75
35045;BME280;21231;48.394;34.964;2022-08-25T07:27:50;100184.66;;;32.33;38.29
35045;BME280;21231;48.394;34.964;2022-08-25T07:30:56;100176.78;;;32.03;38.16
35045;BME280;21231;48.394;34.964;2022-08-25T07:33:49;100177.16;;;32.45;37.94
35045;BME280;21231;48.394;34.964;2022-08-25T07:37:03;100177.53;;;32.61;37.47
35045;BME280;21231;48.394;34.964;2022-08-25T07:40:12;100165.88;;;32.64;37.60
35045;BME280;21231;48.394;34.964;2022-08-25T07:43:16;100155.59;;;32.77;37.34
35045;BME280;21231;48.394;34.964;2022-08-25T07:46:19;100150.22;;;32.78;36.68
35045;BME280;21231;48.394;34.964;2022-08-25T07:49:13;100141.22;;;33.29;36.56
35045;BME280;21231;48.394;34.964;2022-08-25T07:52:29;100142.81;;;32.63;35.61
35045;BME280;21231;48.394;34.964;2022-08-25T07:58:56;100140.13;;;33.34;35.84
35045;BME280;21231;48.394;34.964;2022-08-25T08:02:08;100129.19;;;33.18;35.16
35045;BME280;21231;48.394;34.964;2022-08-25T08:05:48;100133.53;;;33.21;35.05
35045;BME280;21231;48.394;34.964;2022-08-25T08:09:05;100135.09;;;33.27;35.23
35045;BME280;21231;48.394;34.964;2022-08-25T08:12:24;100123.28;;;33.55;34.83
35045;BME280;21231;48.394;34.964;2022-08-25T08:15:47;100118.00;;;33.53;34.79
35045;BME280;21231;48.394;34.964;2022-08-25T08:18:55;100110.94;;;33.06;34.72
35045;BME280;21231;48.394;34.964;2022-08-25T08:22:08;100108.00;;;33.14;34.55
35045;BME280;21231;48.394;34.964;2022-08-25T08:25:07;100101.50;;;33.43;34.86
35045;BME280;21231;48.394;34.964;2022-08-25T08:28:37;100096.78;;;33.28;34.71
35045;BME280;21231;48.394;34.964;2022-08-25T08:31:41;100088.41;;;32.91;34.66
35045;BME280;21231;48.394;34.964;2022-08-25T08:34:41;100099.31;;;32.84;34.07
35045;BME280;21231;48.394;34.964;2022-08-25T08:37:44;100092.13;;;33.33;33.98
35045;BME280;21231;48.394;34.964;2022-08-25T08:54:25;100076.78;;;33.16;34.11
35045;BME280;21231;48.394;34.964;2022-08-25T09:01:12;100068.41;;;33.01;33.95
35045;BME280;21231;48.394;34.964;2022-08-25T09:04:26;100080.28;;;32.70;33.57
35045;BME280;21231;48.394;34.964;2022-08-25T09:08:18;100070.06;;;32.81;33.81
35045;BME280;21231;48.394;34.964;2022-08-25T09:28:50;100044.63;;;31.98;34.25
35045;BME280;21231;48.394;34.964;2022-08-25T09:32:10;100041.00;;;31.73;34.78
35045;BME280;21231;48.394;34.964;2022-08-25T09:35:25;100034.47;;;31.57;34.78
35045;BME280;21231;48.394;34.964;2022-08-25T09:38:27;100047.31;;;31.44;35.13
35045;BME280;21231;48.394;34.964;2022-08-25T09:44:52;100027.59;;;31.49;35.51
35045;BME280;21231;48.394;34.964;2022-08-25T09:47:50;100039.03;;;31.53;35.59
35045;BME280;21231;48.394;34.964;2022-08-25T09:50:43;100034.81;;;31.46;36.05
35045;BME280;21231;48.394;34.964;2022-08-25T09:56:58;100041.63;;;31.26;35.84
35045;BME280;21231;48.394;34.964;2022-08-25T10:00:28;100015.88;;;31.26;36.24
35045;BME280;21231;48.394;34.964;2022-08-25T10:03:24;100027.75;;;31.45;36.25
35045;BME280;21231;48.394;34.964;2022-08-25T10:06:28;100021.72;;;31.39;36.12
35045;BME280;21231;48.394;34.964;2022-08-25T10:12:59;100010.34;;;31.61;35.84
35045;BME280;21231;48.394;34.964;2022-08-25T10:19:38;100016.56;;;31.60;35.28
35045;BME280;21231;48.394;34.964;2022-08-25T10:22:45;100005.41;;;31.76;34.79
35045;BME280;21231;48.394;34.964;2022-08-25T10:25:50;99991.75;;;31.60;34.31
35045;BME280;21231;48.394;34.964;2022-08-25T15:27:36;99857.69;;;30.54;38.13
35045;BME280;21231;48.394;34.964;2022-08-25T15:30:29;99863.25;;;30.46;38.10
35045;BME280;21231;48.394;34.964;2022-08-25T15:33:24;99866.97;;;30.41;38.33
35045;BME280;21231;48.394;34.964;2022-08-25T15:36:45;99861.03;;;30.32;38.29
35045;BME280;21231;48.394;34.964;2022-08-25T15:39:58;99859.63;;;30.20;38.43
35045;BME280;21231;48.394;34.964;2022-08-25T15:43:20;99864.28;;;30.12;38.68
35045;BME280;21231;48.394;34.964;2022-08-25T15:46:41;99863.78;;;29.97;39.16
35045;BME280;21231;48.394;34.964;2022-08-25T15:56:42;99859.09;;;29.76;39.67
35045;BME280;21231;48.394;34.964;2022-08-25T15:59:34;99858.38;;;29.70;39.65
35045;BME280;21231;48.394;34.964;2022-08-25T16:16:15;99872.06;;;29.20;40.76
35045;BME280;21231;48.394;34.964;2022-08-25T16:19:19;99871.59;;;29.04;40.70
35045;BME280;21231;48.394;34.964;2022-08-25T16:22:19;99879.63;;;29.01;40.26
35045;BME280;21231;48.394;34.964;2022-08-25T16:25:13;99878.88;;;28.95;40.45
35045;BME280;21231;48.394;34.964;2022-08-25T16:28:24;99871.06;;;28.89;40.23
35045;BME280;21231;48.394;34.964;2022-08-25T16:31:44;99881.91;;;28.80;41.00
35045;BME280;21231;48.394;34.964;2022-08-25T16:34:48;99885.53;;;28.76;40.47
35045;BME280;21231;48.394;34.964;2022-08-25T16:37:53;99883.13;;;28.63;40.87
35045;BME280;21231;48.394;34.964;2022-08-25T16:40:59;99878.91;;;28.56;40.96
35045;BME280;21231;48.394;34.964;2022-08-25T16:43:54;99875.44;;;28.52;40.87
35045;BME280;21231;48.394;34.964;2022-08-25T16:46:48;99872.97;;;28.44;40.91
35045;BME280;21231;48.394;34.964;2022-08-25T16:50:12;99880.94;;;28.44;40.53
35045;BME280;21231;48.394;34.964;2022-08-25T16:53:17;99880.09;;;28.42;40.58
35045;BME280;21231;48.394;34.964;2022-08-25T16:56:55;99883.78;;;28.35;40.36
35045;BME280;21231;48.394;34.964;2022-08-25T17:00:14;99875.09;;;28.30;40.25
35045;BME280;21231;48.394;34.964;2022-08-25T17:03:34;99882.34;;;28.20;40.61
35045;BME280;21231;48.394;34.964;2022-08-25T17:06:46;99873.56;;;28.16;40.44
35045;BME280;21231;48.394;34.964;2022-08-25T17:09:50;99875.56;;;28.08;40.35
35045;BME280;21231;48.394;34.964;2022-08-25T17:13:11;99875.56;;;28.08;40.37
35045;BME280;21231;48.394;34.964;2022-08-25T17:19:15;99870.34;;;28.02;39.79
35045;BME280;21231;48.394;34.964;2022-08-25T17:22:16;99877.53;;;27.95;39.72
35045;BME280;21231;48.394;34.964;2022-08-25T17:25:10;99868.72;;;27.95;39.80
35045;BME280;21231;48.394;34.964;2022-08-25T17:27:56;99874.94;;;27.92;39.58
35045;BME280;21231;48.394;34.964;2022-08-25T17:30:44;99882.00;;;27.93;39.58
35045;BME280;21231;48.394;34.964;2022-08-25T17:33:30;99881.84;;;28.01;39.56
35045;BME280;21231;48.394;34.964;2022-08-25T17:36:20;99883.53;;;28.07;39.20
35045;BME280;21231;48.394;34.964;2022-08-25T17:39:12;99883.44;;;28.10;39.19
35045;BME280;21231;48.394;34.964;2022-08-25T17:42:00;99875.56;;;28.05;38.88
35045;BME280;21231;48.394;34.964;2022-08-25T17:44:46;99877.50;;;27.97;39.44
35045;BME280;21231;48.394;34.964;2022-08-25T17:47:34;99873.25;;;27.88;39.45
35045;BME280;21231;48.394;34.964;2022-08-25T17:50:21;99869.84;;;27.83;39.42
35045;BME280;21231;48.394;34.964;2022-08-25T17:53:08;99871.56;;;27.84;39.79
35045;BME280;21231;48.394;34.964;2022-08-25T17:56:00;99876.22;;;27.74;39.72
35045;BME280;21231;48.394;34.964;2022-08-25T17:58:47;99864.81;;;27.69;39.69
35045;BME280;21231;48.394;34.964;2022-08-25T18:01:36;99874.44;;;27.73;39.68
35045;BME280;21231;48.394;34.964;2022-08-25T18:04:26;99870.06;;;27.72;39.52
35045;BME280;21231;48.394;34.964;2022-08-25T18:07:15;99874.59;;;27.65;39.31
35045;BME280;21231;48.394;34.964;2022-08-25T18:10:03;99876.38;;;27.64;39.44
35045;BME280;21231;48.394;34.964;2022-08-25T18:12:56;99861.56;;;27.56;39.33
35045;BME280;21231;48.394;34.964;2022-08-25T18:15:54;99865.16;;;27.51;39.31
35045;BME280;21231;48.394;34.964;2022-08-25T18:18:40;99864.31;;;27.49;39.21
35045;BME280;21231;48.394;34.964;2022-08-25T18:21:29;99868.09;;;27.34;39.70
35045;BME280;21231;48.394;34.964;2022-08-25T18:24:16;99857.63;;;27.28;39.84
35045;BME280;21231;48.394;34.964;2022-08-25T18:27:04;99855.13;;;27.20;39.75
35045;BME280;21231;48.394;34.964;2022-08-25T18:29:54;99855.09;;;27.22;39.31
35045;BME280;21231;48.394;34.964;2022-08-25T18:32:41;99862.13;;;27.23;39.45
35045;BME280;21231;48.394;34.964;2022-08-25T18:35:32;99862.19;;;27.18;39.78
35045;BME280;21231;48.394;34.964;2022-08-25T18:38:23;99850.81;;;27.13;39.40
35045;BME280;21231;48.394;34.964;2022-08-25T18:41:39;99858.00;;;27.06;39.72
35045;BME280;21231;48.394;34.964;2022-08-25T18:44:27;99853.63;;;27.05;39.61
35045;BME280;21231;48.394;34.964;2022-08-25T18:47:15;99854.59;;;26.98;39.65
35045;BME280;21231;48.394;34.964;2022-08-25T18:50:07;99850.22;;;26.97;39.52
35045;BME280;21231;48.394;34.964;2022-08-25T18:52:56;99851.25;;;26.88;39.96
35045;BME280;21231;48.394;34.964;2022-08-25T18:55:43;99842.47;;;26.87;40.03
35045;BME280;21231;48.394;34.964;2022-08-25T18:58:30;99850.53;;;26.78;40.23
35045;BME280;21231;48.394;34.964;2022-08-25T19:01:29;99844.44;;;26.73;40.21
35045;BME280;21231;48.394;34.964;2022-08-25T19:04:16;99840.19;;;26.61;40.84
35045;BME280;21231;48.394;34.964;2022-08-25T19:07:04;99844.75;;;26.51;40.93
35045;BME280;21231;48.394;34.964;2022-08-25T19:09:53;99843.91;;;26.49;40.51
35045;BME280;21231;48.394;34.964;2022-08-25T19:12:40;99840.31;;;26.55;40.80
35045;BME280;21231;48.394;34.964;2022-08-25T19:15:30;99835.06;;;26.52;40.65
35045;BME280;21231;48.394;34.964;2022-08-25T19:18:19;99840.41;;;26.45;40.84
35045;BME280;21231;48.394;34.964;2022-08-25T19:21:15;99833.53;;;26.35;41.12
35045;BME280;21231;48.394;34.964;2022-08-25T19:24:14;99830.81;;;26.41;40.68
35045;BME280;21231;48.394;34.964;2022-08-25T19:27:01;99818.44;;;26.45;40.53
35045;BME280;21231;48.394;34.964;2022-08-25T19:29:49;99827.19;;;26.47;40.22
35045;BME280;21231;48.394;34.964;2022-08-25T19:32:38;99822.81;;;26.44;40.35
35045;BME280;21231;48.394;34.964;2022-08-25T19:35:41;99819.22;;;26.50;40.04
35045;BME280;21231;48.394;34.964;2022-08-25T19:38:30;99822.81;;;26.44;40.50
35045;BME280;21231;48.394;34.964;2022-08-25T19:41:27;99818.66;;;26.29;41.24
35045;BME280;21231;48.394;34.964;2022-08-25T19:44:16;99817.03;;;26.19;40.93
35045;BME280;21231;48.394;34.964;2022-08-25T19:47:04;99816.22;;;26.15;40.93
35045;BME280;21231;48.394;34.964;2022-08-25T19:49:58;99809.13;;;26.19;40.67
35045;BME280;21231;48.394;34.964;2022-08-25T19:52:48;99805.69;;;26.14;40.91
35045;BME280;21231;48.394;34.964;2022-08-25T19:55:36;99815.41;;;26.08;40.79
35045;BME280;21231;48.394;34.964;2022-08-25T19:58:23;99809.13;;;26.17;40.44
35045;BME280;21231;48.394;34.964;2022-08-25T20:01:09;99806.47;;;26.19;40.35
35045;BME280;21231;48.394;34.964;2022-08-25T20:03:55;99804.63;;;26.24;40.14
35045;BME280;21231;48.394;34.964;2022-08-25T20:06:41;99800.31;;;26.20;40.30
35045;BME280;21231;48.394;34.964;2022-08-25T20:09:32;99806.50;;;26.17;40.28
35045;BME280;21231;48.394;34.964;2022-08-25T20:12:27;99802.16;;;26.13;40.24
35045;BME280;21231;48.394;34.964;2022-08-25T20:15:14;99794.28;;;26.08;40.35
35045;BME280;21231;48.394;34.964;2022-08-25T20:18:01;99802.22;;;26.08;40.30
35045;BME280;21231;48.394;34.964;2022-08-25T20:20:48;99798.75;;;26.05;40.00
35045;BME280;21231;48.394;34.964;2022-08-25T20:23:35;99793.34;;;26.13;39.99
35045;BME280;21231;48.394;34.964;2022-08-25T20:26:39;99786.25;;;26.18;40.19
35045;BME280;21231;48.394;34.964;2022-08-25T20:29:27;99805.63;;;26.17;40.15
35045;BME280;21231;48.394;34.964;2022-08-25T20:32:17;99798.63;;;26.13;40.29
35045;BME280;21231;48.394;34.964;2022-08-25T20:35:11;99797.84;;;26.07;40.31
35045;BME280;21231;48.394;34.964;2022-08-25T20:38:00;99790.78;;;26.08;39.92
35045;BME280;21231;48.394;34.964;2022-08-25T20:43:52;99781.94;;;26.12;39.75
35045;BME280;21231;48.394;34.964;2022-08-25T20:46:40;99797.75;;;26.15;39.68
35045;BME280;21231;48.394;34.964;2022-08-25T20:49:34;99789.84;;;26.14;39.72
35045;BME280;21231;48.394;34.964;2022-08-25T20:52:47;99808.38;;;26.07;39.75
35045;BME280;21231;48.394;34.964;2022-08-25T20:55:33;99785.50;;;26.08;39.86
35045;BME280;21231;48.394;34.964;2022-08-25T20:58:27;99793.50;;;26.03;40.02
35045;BME280;21231;48.394;34.964;2022-08-25T21:01:22;99798.88;;;25.97;39.83
35045;BME280;21231;48.394;34.964;2022-08-25T21:04:26;99790.97;;;25.94;40.10
35045;BME280;21231;48.394;34.964;2022-08-25T21:07:14;99802.41;;;25.96;39.74
35045;BME280;21231;48.394;34.964;2022-08-25T21:10:13;99811.16;;;26.00;39.72
35045;BME280;21231;48.394;34.964;2022-08-25T21:13:04;99810.25;;;25.99;39.53
35045;BME280;21231;48.394;34.964;2022-08-25T21:15:50;99811.22;;;25.93;39.67
35045;BME280;21231;48.394;34.964;2022-08-25T21:18:37;99820.94;;;25.86;40.01
35045;BME280;21231;48.394;34.964;2022-08-25T21:21:32;99817.47;;;25.84;40.10
35045;BME280;21231;48.394;34.964;2022-08-25T21:24:20;99822.78;;;25.81;39.81
35045;BME280;21231;48.394;34.964;2022-08-25T21:27:06;99821.06;;;25.77;40.03
35045;BME280;21231;48.394;34.964;2022-08-25T21:29:53;99815.88;;;25.72;40.16
35045;BME280;21231;48.394;34.964;2022-08-25T21:32:40;99824.72;;;25.67;40.25
35045;BME280;21231;48.394;34.964;2022-08-25T21:35:46;99822.09;;;25.67;39.95
35045;BME280;21231;48.394;34.964;2022-08-25T21:38:34;99821.16;;;25.69;39.93
35045;BME280;21231;48.394;34.964;2022-08-25T21:41:29;99808.03;;;25.63;40.04
35045;BME280;21231;48.394;34.964;2022-08-25T21:44:19;99815.94;;;25.65;40.03
35045;BME280;21231;48.394;34.964;2022-08-25T21:47:05;99824.75;;;25.62;39.78
35045;BME280;21231;48.394;34.964;2022-08-25T21:49:52;99819.50;;;25.60;39.86
35045;BME280;21231;48.394;34.964;2022-08-25T21:52:38;99813.38;;;25.60;39.90
35045;BME280;21231;48.394;34.964;2022-08-25T21:55:28;99819.59;;;25.54;40.16
35045;BME280;21231;48.394;34.964;2022-08-25T21:58:15;99814.34;;;25.51;40.09
35045;BME280;21231;48.394;34.964;2022-08-25T22:01:17;99814.31;;;25.54;39.81
35045;BME280;21231;48.394;34.964;2022-08-25T22:04:05;99809.13;;;25.48;40.08
35045;BME280;21231;48.394;34.964;2022-08-25T22:06:51;99816.19;;;25.41;40.04
35045;BME280;21231;48.394;34.964;2022-08-25T22:09:45;99818.00;;;25.39;40.31
35045;BME280;21231;48.394;34.964;2022-08-25T22:12:32;99815.38;;;25.34;40.18
35045;BME280;21231;48.394;34.964;2022-08-25T22:15:20;99801.41;;;25.28;40.09
35045;BME280;21231;48.394;34.964;2022-08-25T22:18:08;99805.75;;;25.30;40.16
35045;BME280;21231;48.394;34.964;2022-08-25T22:20:55;99808.41;;;25.30;40.02
35045;BME280;21231;48.394;34.964;2022-08-25T22:23:43;99811.09;;;25.29;40.34
35045;BME280;21231;48.394;34.964;2022-08-25T22:26:32;99812.00;;;25.25;40.11
35045;BME280;21231;48.394;34.964;2022-08-25T22:29:18;99821.66;;;25.24;40.14
35045;BME280;21231;48.394;34.964;2022-08-25T22:32:19;99821.75;;;25.18;40.36
35045;BME280;21231;48.394;34.964;2022-08-25T22:35:26;99819.91;;;25.23;40.18
35045;BME280;21231;48.394;34.964;2022-08-25T22:38:17;99815.56;;;25.20;40.09
35045;BME280;21231;48.394;34.964;2022-08-25T22:41:08;99823.47;;;25.19;40.07
35045;BME280;21231;48.394;34.964;2022-08-25T22:43:57;99817.28;;;25.23;40.25
35045;BME280;21231;48.394;34.964;2022-08-25T22:46:44;99806.72;;;25.25;40.06
35045;BME280;21231;48.394;34.964;2022-08-25T22:49:30;99806.66;;;25.28;39.76
35045;BME280;21231;48.394;34.964;2022-08-25T22:52:24;99813.75;;;25.24;39.76
35045;BME280;21231;48.394;34.964;2022-08-25T22:55:22;99811.94;;;25.28;39.80
35045;BME280;21231;48.394;34.964;2022-08-25T22:58:09;99818.19;;;25.22;39.83
35045;BME280;21231;48.394;34.964;2022-08-25T23:01:00;99820.75;;;25.25;39.82
35045;BME280;21231;48.394;34.964;2022-08-25T23:03:48;99812.84;;;25.25;40.03
35045;BME280;21231;48.394;34.964;2022-08-25T23:06:37;99824.31;;;25.24;39.71
35045;BME280;21231;48.394;34.964;2022-08-25T23:09:24;99817.28;;;25.23;39.61
35045;BME280;21231;48.394;34.964;2022-08-25T23:12:11;99810.22;;;25.27;39.69